Time;durP1;ratioP1;P1;durP2;ratioP2;P2;SDS_P1;SDS_P2;PMS_P1;PMS_P2;Temp;Humidity;BMP_temperature;BMP_pressure;BME280_temperature;BME280_humidity;BME280_pressure;Samples;Min_cycle;Max_cycle;Signal;HPM_P1;HPM_P2
2021/01/25 00:02:03;;;;;;;10.35;7.25;;;16.70;60.60;;;;;;5070036;28;20083;-61
2021/01/25 00:04:28;;;;;;;10.05;7.30;;;16.70;60.60;;;;;;5069999;28;20531;-62
2021/01/25 00:06:54;;;;;;;9.43;6.72;;;16.60;60.70;;;;;;5068801;28;20031;-61
2021/01/25 00:09:19;;;;;;;10.55;6.78;;;16.70;60.40;;;;;;5070138;28;20067;-63
2021/01/25 00:11:45;;;;;;;10.23;6.78;;;16.70;60.40;;;;;;5071504;28;20458;-67
2021/01/25 00:14:10;;;;;;;9.20;6.53;;;16.60;60.50;;;;;;5089022;28;20072;-61
2021/01/25 00:16:36;;;;;;;10.65;7.00;;;16.70;60.30;;;;;;5090329;28;20384;-62
2021/01/25 00:19:01;;;;;;;10.02;6.40;;;16.70;60.10;;;;;;5090323;28;20423;-63
2021/01/25 00:21:27;;;;;;;9.68;6.50;;;16.60;60.10;;;;;;5092813;28;20493;-66
2021/01/25 00:23:52;;;;;;;10.35;6.75;;;16.60;60.30;;;;;;5092779;28;20032;-62
2021/01/25 00:26:18;;;;;;;9.10;6.72;;;16.70;59.90;;;;;;5093610;28;20030;-62
2021/01/25 00:28:43;;;;;;;9.18;6.53;;;16.60;60.00;;;;;;5092293;28;20397;-63
2021/01/25 00:31:09;;;;;;;8.68;6.53;;;16.60;60.20;;;;;;5093024;28;20660;-65
2021/01/25 00:33:34;;;;;;;9.77;6.45;;;16.50;59.90;;;;;;5092414;28;20024;-62
2021/01/25 00:36:00;;;;;;;9.80;6.53;;;16.60;59.70;;;;;;5088098;28;20051;-61
2021/01/25 00:38:26;;;;;;;8.90;6.28;;;16.50;59.80;;;;;;5091029;28;20028;-65
2021/01/25 00:40:51;;;;;;;9.32;6.53;;;16.50;59.80;;;;;;5091780;28;20031;-60
2021/01/25 00:43:17;;;;;;;9.25;6.20;;;16.60;59.70;;;;;;5091470;28;20030;-61
2021/01/25 00:45:43;;;;;;;9.50;6.25;;;16.50;59.50;;;;;;5092172;28;20027;-63
2021/01/25 00:48:08;;;;;;;9.85;6.60;;;16.50;59.80;;;;;;5093297;28;20047;-61
2021/01/25 00:50:34;;;;;;;9.50;6.50;;;16.50;59.90;;;;;;5093276;28;20052;-65
2021/01/25 00:52:59;;;;;;;9.52;6.38;;;16.60;59.40;;;;;;5091800;28;20024;-65
2021/01/25 00:55:25;;;;;;;10.20;6.15;;;16.50;59.40;;;;;;5093264;28;20481;-62
2021/01/25 00:57:50;;;;;;;9.20;6.45;;;16.40;59.50;;;;;;5092985;28;20473;-62
2021/01/25 01:00:17;;;;;;;9.38;6.38;;;16.40;59.10;;;;;;5093097;28;20032;-63
2021/01/25 01:02:42;;;;;;;9.45;6.22;;;16.50;59.00;;;;;;5092664;28;20028;-64
2021/01/25 01:05:09;;;;;;;9.43;6.25;;;16.50;59.00;;;;;;5092856;28;20039;-62
2021/01/25 01:07:35;;;;;;;9.88;6.25;;;16.40;59.40;;;;;;5093022;28;20115;-65
2021/01/25 01:10:00;;;;;;;9.65;5.97;;;16.40;59.10;;;;;;5093118;28;20120;-62
2021/01/25 01:12:26;;;;;;;9.07;6.07;;;16.50;59.20;;;;;;5092584;28;20072;-64
2021/01/25 01:14:52;;;;;;;9.30;6.00;;;16.40;59.20;;;;;;5092916;28;20421;-61
2021/01/25 01:17:18;;;;;;;11.00;6.32;;;16.40;59.20;;;;;;5092935;28;20024;-61
2021/01/25 01:19:43;;;;;;;11.63;6.35;;;16.40;59.20;;;;;;5092926;28;20035;-61
2021/01/25 01:22:09;;;;;;;9.30;5.97;;;16.40;59.20;;;;;;5092562;28;20507;-64
2021/01/25 01:24:34;;;;;;;8.50;5.57;;;16.30;59.40;;;;;;5092752;28;20503;-63
2021/01/25 01:27:00;;;;;;;7.95;5.50;;;16.40;59.20;;;;;;5091065;28;20431;-62
2021/01/25 01:29:25;;;;;;;8.55;5.43;;;16.50;59.00;;;;;;5088877;28;20444;-63
2021/01/25 01:31:51;;;;;;;8.10;5.57;;;16.40;59.00;;;;;;5071475;28;20029;-64
2021/01/25 01:34:17;;;;;;;9.65;5.53;;;16.30;59.20;;;;;;5072312;28;20020;-63
2021/01/25 01:36:42;;;;;;;9.43;5.40;;;16.40;59.10;;;;;;5071903;28;20448;-65
2021/01/25 01:39:08;;;;;;;10.02;5.70;;;16.40;59.10;;;;;;5070908;28;20077;-62
2021/01/25 01:41:37;;;;;;;7.95;5.47;;;16.30;59.30;;;;;;5070602;28;20035;-62
2021/01/25 01:44:07;;;;;;;8.68;5.85;;;16.30;59.10;;;;;;5070903;28;20169;-62
2021/01/25 01:46:42;;;;;;;9.43;5.50;;;16.30;59.10;;;;;;5071852;28;20029;-63
2021/01/25 01:49:09;;;;;;;7.85;5.45;;;16.30;59.10;;;;;;5072116;28;20024;-61
2021/01/25 01:51:38;;;;;;;8.57;5.70;;;16.20;59.20;;;;;;5071698;28;20108;-61
2021/01/25 01:54:06;;;;;;;9.02;5.50;;;16.30;59.10;;;;;;5070680;28;20024;-62
2021/01/25 01:56:33;;;;;;;8.50;5.38;;;16.30;58.90;;;;;;5071834;28;20030;-62
2021/01/25 01:58:58;;;;;;;6.82;5.00;;;16.30;59.10;;;;;;5071504;28;20113;-63
2021/01/25 02:01:24;;;;;;;8.93;5.15;;;16.20;59.20;;;;;;5087071;28;20477;-61
2021/01/25 02:03:50;;;;;;;8.68;5.07;;;16.30;59.10;;;;;;5091874;28;20102;-61
2021/01/25 02:06:18;;;;;;;9.63;5.38;;;16.30;58.90;;;;;;5091789;28;20103;-62
2021/01/25 02:08:45;;;;;;;8.18;5.32;;;16.20;59.00;;;;;;5090668;28;20069;-64
2021/01/25 02:11:11;;;;;;;8.77;5.70;;;16.20;59.30;;;;;;5090377;28;20020;-65
2021/01/25 02:13:38;;;;;;;7.88;5.40;;;16.20;59.00;;;;;;5090239;28;20024;-65
2021/01/25 02:16:04;;;;;;;9.80;5.35;;;16.20;58.80;;;;;;5090378;28;20439;-64
2021/01/25 02:18:33;;;;;;;8.75;5.25;;;16.20;58.90;;;;;;5086603;28;20032;-63
2021/01/25 02:21:01;;;;;;;9.75;5.38;;;16.20;58.90;;;;;;5078405;28;20033;-65
2021/01/25 02:23:46;;;;;;;8.77;5.45;;;16.20;59.00;;;;;;5071129;28;20095;-63
2021/01/25 02:26:22;;;;;;;10.23;5.60;;;16.30;58.60;;;;;;5070789;28;20024;-65
2021/01/25 02:28:48;;;;;;;8.85;5.35;;;16.20;58.70;;;;;;5069574;28;20390;-62
2021/01/25 02:31:14;;;;;;;7.75;5.20;;;16.20;58.80;;;;;;5097868;28;20024;-62
2021/01/25 02:33:47;;;;;;;8.98;5.03;;;16.20;58.80;;;;;;5089711;28;20032;-62
2021/01/25 02:36:15;;;;;;;8.85;5.50;;;16.20;58.80;;;;;;5091181;28;20020;-61
2021/01/25 02:38:47;;;;;;;9.55;4.95;;;16.20;58.70;;;;;;5091239;28;20065;-62
2021/01/25 02:41:15;;;;;;;9.48;6.05;;;16.20;58.70;;;;;;5089523;28;20027;-61
2021/01/25 02:43:41;;;;;;;8.48;5.15;;;16.20;58.70;;;;;;5090082;28;20027;-62
2021/01/25 02:46:09;;;;;;;8.73;5.05;;;16.20;58.70;;;;;;5090881;28;20033;-60
2021/01/25 02:48:35;;;;;;;7.45;5.05;;;16.10;58.70;;;;;;5091034;28;20028;-62
2021/01/25 02:51:01;;;;;;;8.05;4.78;;;16.10;58.80;;;;;;5089436;28;20016;-61
2021/01/25 02:53:27;;;;;;;8.77;4.90;;;16.20;58.80;;;;;;5091055;28;20016;-61
2021/01/25 02:55:55;;;;;;;8.57;4.95;;;16.10;58.80;;;;;;5090348;28;20020;-62
2021/01/25 02:58:21;;;;;;;7.38;4.97;;;16.10;58.80;;;;;;5089949;28;20023;-64
2021/01/25 03:00:48;;;;;;;9.82;5.22;;;16.10;58.80;;;;;;5085157;28;20557;-64
2021/01/25 03:03:14;;;;;;;10.25;5.22;;;16.10;58.60;;;;;;5089538;28;20039;-61
2021/01/25 03:05:40;;;;;;;8.50;5.20;;;16.00;58.70;;;;;;5090910;28;20032;-61
2021/01/25 03:08:06;;;;;;;8.98;5.32;;;16.00;58.70;;;;;;5090849;28;20358;-62
2021/01/25 03:10:32;;;;;;;8.52;4.93;;;16.00;58.60;;;;;;5091078;28;20062;-61
2021/01/25 03:13:02;;;;;;;8.25;5.03;;;16.00;58.70;;;;;;5090771;28;20078;-62
2021/01/25 03:15:29;;;;;;;9.45;4.97;;;16.00;58.60;;;;;;5091894;28;20162;-62
2021/01/25 03:17:54;;;;;;;8.65;4.90;;;16.00;58.50;;;;;;5091329;28;20397;-65
2021/01/25 03:20:20;;;;;;;7.97;4.93;;;16.00;58.60;;;;;;5090929;28;20031;-61
2021/01/25 03:22:46;;;;;;;9.52;5.38;;;15.90;58.80;;;;;;5091285;28;20028;-62
2021/01/25 03:25:12;;;;;;;8.70;4.80;;;16.00;58.70;;;;;;5091348;28;20084;-62
2021/01/25 03:27:37;;;;;;;7.78;4.95;;;15.90;58.60;;;;;;5090583;28;20043;-63
2021/01/25 03:30:10;;;;;;;7.57;4.75;;;15.90;58.70;;;;;;5081811;28;20025;-62
2021/01/25 03:32:36;;;;;;;7.47;4.47;;;16.00;58.60;;;;;;5068936;28;20031;-64
2021/01/25 03:35:09;;;;;;;7.65;4.70;;;16.00;58.40;;;;;;5069168;28;20092;-62
2021/01/25 03:37:35;;;;;;;7.93;5.13;;;16.00;58.50;;;;;;5069174;28;20052;-61
2021/01/25 03:40:00;;;;;;;7.85;5.10;;;15.90;58.60;;;;;;5068991;28;20059;-61
2021/01/25 03:42:26;;;;;;;9.55;5.35;;;15.90;58.50;;;;;;5069820;28;20025;-61
2021/01/25 03:44:52;;;;;;;11.10;5.03;;;15.90;58.50;;;;;;5068919;28;20066;-65
2021/01/25 03:47:18;;;;;;;7.35;4.70;;;15.90;58.60;;;;;;5070314;28;20108;-65
2021/01/25 03:49:43;;;;;;;10.02;5.15;;;15.90;58.50;;;;;;5070405;28;20024;-62
2021/01/25 03:52:09;;;;;;;7.55;4.93;;;15.90;58.30;;;;;;5070139;28;20036;-61
2021/01/25 03:54:34;;;;;;;9.07;5.15;;;15.90;58.60;;;;;;5068794;28;20498;-63
2021/01/25 03:57:02;;;;;;;8.05;4.95;;;15.90;58.60;;;;;;5073687;28;20028;-60
2021/01/25 03:59:30;;;;;;;7.38;4.75;;;15.90;58.50;;;;;;5073164;28;20405;-62
2021/01/25 04:01:57;;;;;;;8.48;5.35;;;15.90;58.30;;;;;;5093938;28;20520;-65
2021/01/25 04:04:23;;;;;;;8.45;4.90;;;15.90;58.40;;;;;;5092985;28;20032;-64
2021/01/25 04:06:48;;;;;;;7.82;4.80;;;15.90;58.40;;;;;;5092818;28;20025;-63
2021/01/25 04:09:14;;;;;;;8.95;5.13;;;15.80;58.50;;;;;;5094188;28;20377;-61
2021/01/25 04:11:42;;;;;;;8.52;4.95;;;15.80;58.60;;;;;;5093956;28;20380;-63
2021/01/25 04:14:08;;;;;;;7.97;4.60;;;15.80;58.60;;;;;;5092554;28;20031;-63
2021/01/25 04:16:34;;;;;;;8.90;5.50;;;15.80;58.50;;;;;;5092706;28;20024;-62
2021/01/25 04:18:59;;;;;;;8.40;4.80;;;15.80;58.30;;;;;;5094009;28;20036;-61
2021/01/25 04:21:25;;;;;;;7.35;4.47;;;15.80;59.10;;;;;;5093844;28;20398;-63
2021/01/25 04:23:50;;;;;;;8.75;5.47;;;15.80;58.50;;;;;;5093918;28;20056;-62
2021/01/25 04:26:16;;;;;;;9.88;5.10;;;15.80;58.50;;;;;;5092579;28;20024;-63
2021/01/25 04:28:45;;;;;;;7.60;4.53;;;15.70;58.40;;;;;;5093457;28;20494;-62
2021/01/25 04:31:11;;;;;;;8.63;5.10;;;15.80;58.40;;;;;;5075077;28;20047;-62
2021/01/25 04:33:38;;;;;;;11.85;5.22;;;15.80;58.20;;;;;;5073590;28;20025;-62
2021/01/25 04:36:05;;;;;;;7.95;5.15;;;15.80;58.10;;;;;;5073401;28;20359;-65
2021/01/25 04:38:30;;;;;;;8.65;5.55;;;15.70;58.30;;;;;;5073377;28;20035;-61
2021/01/25 04:40:57;;;;;;;7.53;4.85;;;15.70;58.30;;;;;;5073169;28;20025;-66
2021/01/25 04:43:23;;;;;;;8.65;5.03;;;15.80;58.20;;;;;;5071866;28;20485;-63
2021/01/25 04:45:49;;;;;;;9.05;5.00;;;15.80;58.00;;;;;;5073196;28;20027;-62
2021/01/25 04:48:15;;;;;;;7.63;4.95;;;15.80;58.20;;;;;;5073177;28;20032;-63
2021/01/25 04:50:41;;;;;;;8.40;5.10;;;15.80;58.20;;;;;;5073129;28;20028;-61
2021/01/25 04:53:07;;;;;;;9.65;5.10;;;15.80;58.00;;;;;;5072908;28;20078;-62
2021/01/25 04:55:35;;;;;;;9.98;5.90;;;15.70;58.00;;;;;;5071312;28;20016;-62
2021/01/25 04:58:02;;;;;;;7.50;5.05;;;15.70;58.10;;;;;;5092904;28;20028;-65
2021/01/25 05:00:27;;;;;;;9.40;5.10;;;15.70;57.90;;;;;;5093393;28;20469;-60
2021/01/25 05:02:53;;;;;;;8.20;4.97;;;15.80;57.90;;;;;;5093000;28;20089;-61
2021/01/25 05:05:19;;;;;;;8.13;5.05;;;15.70;58.10;;;;;;5091756;28;20036;-66
2021/01/25 05:07:45;;;;;;;11.07;5.18;;;15.80;58.00;;;;;;5092210;28;20032;-62
2021/01/25 05:10:11;;;;;;;10.25;5.30;;;15.80;57.80;;;;;;5093214;28;20473;-66
2021/01/25 05:12:49;;;;;;;7.70;5.07;;;15.70;57.90;;;;;;5092802;28;20477;-66
2021/01/25 05:15:31;;;;;;;8.60;5.40;;;15.60;58.20;;;;;;5093119;28;20020;-66
2021/01/25 05:18:02;;;;;;;8.20;5.38;;;15.70;58.20;;;;;;5091672;28;20020;-64
2021/01/25 05:20:29;;;;;;;8.48;5.22;;;15.70;57.80;;;;;;5093151;28;20020;-62
2021/01/25 05:22:56;;;;;;;8.02;4.82;;;15.70;58.00;;;;;;5092771;28;20178;-63
2021/01/25 05:25:30;;;;;;;11.57;5.40;;;15.60;58.20;;;;;;5089326;28;20430;-62
2021/01/25 05:27:58;;;;;;;8.48;5.18;;;15.60;58.20;;;;;;5070740;28;20021;-61
2021/01/25 05:30:25;;;;;;;7.70;4.50;;;15.70;57.80;;;;;;5072424;28;20067;-62
2021/01/25 05:32:57;;;;;;;7.80;4.70;;;15.70;57.90;;;;;;5072320;28;20056;-61
2021/01/25 05:35:26;;;;;;;233.82;213.35;;;15.70;57.90;;;;;;5072426;28;20023;-66
2021/01/25 05:37:54;;;;;;;200.27;170.57;;;15.60;58.40;;;;;;5081184;28;20077;-61
2021/01/25 05:40:21;;;;;;;65.50;57.83;;;15.60;58.60;;;;;;5083885;28;20039;-63
2021/01/25 05:42:47;;;;;;;40.80;36.42;;;15.70;58.20;;;;;;5088073;28;20093;-61
2021/01/25 05:45:13;;;;;;;32.50;27.38;;;15.70;58.00;;;;;;5102550;28;20024;-61
2021/01/25 05:47:47;;;;;;;24.85;21.90;;;15.80;58.00;;;;;;5092514;28;20031;-61
2021/01/25 05:50:31;;;;;;;25.10;20.63;;;15.80;57.90;;;;;;5092464;28;20069;-61
2021/01/25 05:52:59;;;;;;;23.05;17.83;;;15.80;58.00;;;;;;5090914;28;20103;-61
2021/01/25 05:55:26;;;;;;;23.13;16.77;;;15.80;58.10;;;;;;5091840;28;20024;-62
2021/01/25 05:57:52;;;;;;;19.17;16.08;;;15.90;58.20;;;;;;5087068;28;20047;-67
2021/01/25 06:00:18;;;;;;;20.90;14.90;;;15.90;58.20;;;;;;5074252;28;20161;-64
2021/01/25 06:02:48;;;;;;;22.38;14.68;;;16.00;58.00;;;;;;5074793;28;20094;-64
2021/01/25 06:05:33;;;;;;;18.55;13.57;;;16.00;57.80;;;;;;5077639;28;20043;-60
2021/01/25 06:08:34;;;;;;;16.05;12.93;;;16.00;58.00;;;;;;5072102;28;20028;-62
2021/01/25 06:11:14;;;;;;;16.85;12.43;;;15.90;58.00;;;;;;5088963;28;20036;-60
2021/01/25 06:13:58;;;;;;;17.35;12.43;;;16.00;58.00;;;;;;5091519;28;20039;-61
2021/01/25 06:16:29;;;;;;;17.17;12.13;;;16.00;58.20;;;;;;5090312;28;20073;-63
2021/01/25 06:18:59;;;;;;;15.35;11.80;;;16.00;58.20;;;;;;5082271;28;20024;-62
2021/01/25 06:21:28;;;;;;;17.65;11.40;;;16.00;58.20;;;;;;5075137;28;20489;-65
2021/01/25 06:23:55;;;;;;;16.75;11.40;;;16.00;58.20;;;;;;5084938;28;20024;-61
2021/01/25 06:26:23;;;;;;;15.77;10.63;;;16.00;58.60;;;;;;5091257;28;20020;-63
2021/01/25 06:28:49;;;;;;;18.95;10.65;;;16.10;58.30;;;;;;5089786;28;20020;-64
2021/01/25 06:31:22;;;;;;;16.67;11.13;;;16.10;58.40;;;;;;5109075;28;20417;-62
2021/01/25 06:33:49;;;;;;;18.48;10.60;;;16.10;58.30;;;;;;5110892;28;20432;-63
2021/01/25 06:36:19;;;;;;;17.42;10.05;;;16.00;58.70;;;;;;5111555;28;20019;-61
2021/01/25 06:38:49;;;;;;;18.25;10.30;;;16.10;58.50;;;;;;5110693;28;20629;-61
2021/01/25 06:41:16;;;;;;;19.23;9.57;;;16.10;58.20;;;;;;5090985;28;20027;-62
2021/01/25 06:43:48;;;;;;;19.02;9.82;;;16.20;58.10;;;;;;5080321;28;20031;-63
2021/01/25 06:46:21;;;;;;;21.02;9.63;;;16.10;58.30;;;;;;5076219;28;20013;-64
2021/01/25 06:48:53;;;;;;;14.18;8.73;;;16.10;58.40;;;;;;5077137;28;20028;-64
2021/01/25 06:51:20;;;;;;;15.10;8.80;;;16.00;58.50;;;;;;5083402;28;20045;-64
2021/01/25 06:53:50;;;;;;;15.20;8.50;;;16.00;58.70;;;;;;5078446;28;20032;-64
2021/01/25 06:56:16;;;;;;;12.55;8.65;;;15.90;58.90;;;;;;5071951;28;20028;-63
2021/01/25 06:58:49;;;;;;;16.75;8.35;;;16.00;59.00;;;;;;5088259;28;20020;-61
2021/01/25 07:01:20;;;;;;;13.25;8.18;;;15.90;59.00;;;;;;5092585;28;20019;-65
2021/01/25 07:03:51;;;;;;;14.65;8.30;;;15.90;59.00;;;;;;5109478;28;20160;-62
2021/01/25 07:06:17;;;;;;;12.50;8.10;;;16.00;58.90;;;;;;5088402;28;20028;-64
2021/01/25 07:08:53;;;;;;;17.75;7.72;;;15.90;58.80;;;;;;5086360;28;20063;-61
2021/01/25 07:11:20;;;;;;;12.23;7.47;;;15.90;59.00;;;;;;5087779;28;20023;-60
2021/01/25 07:13:46;;;;;;;12.93;7.30;;;16.00;58.90;;;;;;5088761;28;20123;-62
2021/01/25 07:16:12;;;;;;;13.07;7.53;;;16.00;58.90;;;;;;5083136;28;20189;-64
2021/01/25 07:18:42;;;;;;;13.50;7.25;;;16.00;58.80;;;;;;5073147;28;20123;-65
2021/01/25 07:21:08;;;;;;;13.30;7.53;;;16.00;58.70;;;;;;5082962;28;20110;-63
2021/01/25 07:23:39;;;;;;;11.13;7.05;;;16.10;58.20;;;;;;5092515;28;20378;-63
2021/01/25 07:26:05;;;;;;;12.43;6.82;;;16.10;58.30;;;;;;5084899;28;20527;-61
2021/01/25 07:28:31;;;;;;;13.07;7.00;;;16.10;58.40;;;;;;5089306;28;20032;-61
2021/01/25 07:30:58;;;;;;;11.48;6.97;;;16.10;58.40;;;;;;5103191;28;20392;-63
2021/01/25 07:33:24;;;;;;;10.82;6.78;;;16.10;58.40;;;;;;5072708;28;20563;-62
2021/01/25 07:35:51;;;;;;;13.35;7.18;;;16.20;58.30;;;;;;5082397;28;20028;-65
2021/01/25 07:38:17;;;;;;;14.25;7.80;;;16.10;58.20;;;;;;5078946;28;20496;-62
2021/01/25 07:40:44;;;;;;;16.05;7.97;;;16.00;58.20;;;;;;5068939;28;20025;-61
2021/01/25 07:43:10;;;;;;;15.07;7.85;;;16.00;58.90;;;;;;5078574;28;20053;-63
2021/01/25 07:45:36;;;;;;;13.80;7.85;;;16.10;58.80;;;;;;5087703;28;20123;-68
2021/01/25 07:48:01;;;;;;;12.90;7.63;;;16.10;59.90;;;;;;5085221;28;20123;-61
2021/01/25 07:50:27;;;;;;;12.40;7.00;;;16.10;58.90;;;;;;5084423;28;20112;-62
2021/01/25 07:53:00;;;;;;;17.42;8.18;;;16.20;58.30;;;;;;5090123;28;20025;-65
2021/01/25 07:55:27;;;;;;;10.85;6.30;;;16.30;58.20;;;;;;5082987;28;20031;-64
2021/01/25 07:57:52;;;;;;;10.85;6.60;;;16.20;58.20;;;;;;5082504;28;20058;-61
2021/01/25 08:00:19;;;;;;;10.75;5.90;;;16.20;58.20;;;;;;5084615;28;20028;-64
2021/01/25 08:02:52;;;;;;;14.95;8.10;;;16.20;58.30;;;;;;5079316;28;20028;-61
2021/01/25 08:05:21;;;;;;;13.07;7.53;;;16.10;58.40;;;;;;5070766;28;20040;-63
2021/01/25 08:07:48;;;;;;;12.73;6.65;;;16.10;58.40;;;;;;5073158;28;20516;-62
2021/01/25 08:10:14;;;;;;;11.02;6.25;;;16.20;58.70;;;;;;5088284;28;20030;-61
2021/01/25 08:12:43;;;;;;;13.40;6.20;;;16.10;58.70;;;;;;5096881;28;20477;-62
2021/01/25 08:15:11;;;;;;;11.05;6.50;;;16.30;58.70;;;;;;5078082;28;20024;-62
2021/01/25 08:17:42;;;;;;;10.50;5.82;;;16.30;58.60;;;;;;5084513;28;20027;-61
2021/01/25 08:20:21;;;;;;;11.52;5.35;;;16.40;58.60;;;;;;5078365;28;20075;-61
2021/01/25 08:23:10;;;;;;;9.55;5.40;;;16.40;58.50;;;;;;5084796;28;20028;-61
2021/01/25 08:25:36;;;;;;;13.27;5.80;;;16.30;58.90;;;;;;5092198;28;20574;-62
2021/01/25 08:28:14;;;;;;;9.73;5.55;;;16.30;58.90;;;;;;5063797;28;20033;-62
2021/01/25 08:30:43;;;;;;;10.60;5.38;;;16.30;58.90;;;;;;5086332;28;20511;-62
2021/01/25 08:33:15;;;;;;;8.55;5.85;;;16.30;59.00;;;;;;5083931;28;20107;-62
2021/01/25 08:39:11;;;;;;;9.82;5.65;;;16.40;59.50;;;;;;5071910;28;20131;-63
2021/01/25 08:41:38;;;;;;;9.75;5.57;;;16.30;59.70;;;;;;5080635;28;20024;-61
2021/01/25 08:44:12;;;;;;;13.13;5.45;;;16.40;59.40;;;;;;5086183;28;20032;-61
2021/01/25 08:46:39;;;;;;;10.20;5.60;;;16.50;59.30;;;;;;5086722;28;20447;-61
2021/01/25 08:49:17;;;;;;;10.80;7.43;;;16.40;59.30;;;;;;5080332;28;20059;-63
2021/01/25 08:51:59;;;;;;;12.18;6.82;;;16.30;59.40;;;;;;5086016;28;20054;-61
2021/01/25 08:54:30;;;;;;;10.68;5.85;;;16.40;59.40;;;;;;5087737;28;20028;-62
2021/01/25 08:56:57;;;;;;;10.85;5.32;;;16.50;59.10;;;;;;5087161;28;20110;-61
2021/01/25 08:59:36;;;;;;;11.57;5.40;;;16.50;58.90;;;;;;5079955;28;20111;-61
2021/01/25 09:02:28;;;;;;;10.65;5.50;;;16.60;58.90;;;;;;5086547;28;20032;-64
2021/01/25 09:04:54;;;;;;;8.63;5.20;;;16.60;58.70;;;;;;5085479;28;20044;-65
2021/01/25 09:07:22;;;;;;;8.65;5.55;;;16.60;58.70;;;;;;5076557;28;20055;-64
2021/01/25 09:09:48;;;;;;;8.45;4.88;;;16.60;58.70;;;;;;5073361;28;20027;-62
2021/01/25 09:12:15;;;;;;;8.10;4.93;;;16.50;58.90;;;;;;5080744;28;20058;-61
2021/01/25 09:14:41;;;;;;;8.30;4.97;;;16.60;58.90;;;;;;5082635;28;20591;-61
2021/01/25 09:17:11;;;;;;;9.20;4.93;;;16.60;58.80;;;;;;5083179;28;20050;-61
2021/01/25 09:19:38;;;;;;;8.45;4.90;;;16.60;58.50;;;;;;5089437;28;20028;-61
2021/01/25 09:22:05;;;;;;;8.18;4.82;;;16.60;58.50;;;;;;5084791;28;20085;-61
2021/01/25 09:24:30;;;;;;;9.15;5.15;;;16.60;58.50;;;;;;5078577;28;20032;-61
2021/01/25 09:26:56;;;;;;;7.95;5.18;;;16.50;58.90;;;;;;5085689;28;20032;-65
2021/01/25 09:29:21;;;;;;;10.38;5.25;;;16.50;58.50;;;;;;5086307;28;20028;-64
2021/01/25 09:31:47;;;;;;;9.82;4.88;;;16.50;58.40;;;;;;5085915;28;20020;-63
2021/01/25 09:34:12;;;;;;;8.85;4.60;;;16.50;58.50;;;;;;5084378;28;20039;-62
2021/01/25 09:36:38;;;;;;;9.13;4.78;;;16.60;58.60;;;;;;5084746;28;20020;-62
2021/01/25 09:39:06;;;;;;;9.57;5.07;;;16.50;58.50;;;;;;5086555;28;20035;-64
2021/01/25 09:41:31;;;;;;;7.50;4.63;;;16.60;58.50;;;;;;5084272;28;20069;-64
2021/01/25 09:43:57;;;;;;;9.65;5.07;;;16.60;58.40;;;;;;5084642;28;20047;-61
2021/01/25 09:46:23;;;;;;;9.77;5.30;;;16.50;58.30;;;;;;5083956;28;20108;-63
2021/01/25 09:48:49;;;;;;;8.20;5.47;;;16.50;58.40;;;;;;5066403;28;20895;-62
2021/01/25 09:51:15;;;;;;;13.43;5.70;;;16.60;58.30;;;;;;5066123;28;20031;-62
2021/01/25 09:53:41;;;;;;;9.52;5.45;;;16.50;58.20;;;;;;5086385;28;20497;-62
2021/01/25 09:56:07;;;;;;;10.02;5.18;;;16.60;58.20;;;;;;5081874;28;20047;-65
2021/01/25 09:58:34;;;;;;;9.07;5.40;;;16.60;58.20;;;;;;5084309;28;20125;-61
2021/01/25 10:01:00;;;;;;;9.05;5.38;;;16.60;58.10;;;;;;5083795;28;20119;-64
2021/01/25 10:03:26;;;;;;;9.45;4.85;;;16.50;58.10;;;;;;5085675;28;20153;-62
2021/01/25 10:05:52;;;;;;;8.35;4.97;;;16.60;58.10;;;;;;5084042;28;20348;-62
2021/01/25 10:08:17;;;;;;;9.55;5.38;;;16.60;58.00;;;;;;5081909;28;20020;-63
2021/01/25 10:10:43;;;;;;;7.60;5.00;;;16.60;57.80;;;;;;5089716;28;20032;-67
2021/01/25 10:13:08;;;;;;;8.63;5.35;;;16.50;57.90;;;;;;5070949;28;20150;-61
2021/01/25 10:15:34;;;;;;;8.30;5.03;;;16.50;57.90;;;;;;5078811;28;20158;-63
2021/01/25 10:18:02;;;;;;;8.82;5.00;;;16.50;57.90;;;;;;5069164;28;20032;-62
2021/01/25 10:20:27;;;;;;;9.68;5.10;;;16.60;57.80;;;;;;5084043;28;20059;-62
2021/01/25 10:22:53;;;;;;;8.25;5.25;;;16.60;57.60;;;;;;5078067;28;20516;-67
2021/01/25 10:25:19;;;;;;;8.63;5.20;;;16.60;57.60;;;;;;5071075;28;20031;-65
2021/01/25 10:27:45;;;;;;;9.52;5.95;;;16.50;57.60;;;;;;5084445;28;20028;-62
2021/01/25 10:30:13;;;;;;;8.52;5.07;;;16.50;57.60;;;;;;5086410;28;20100;-61
2021/01/25 10:32:39;;;;;;;8.38;4.90;;;16.50;57.80;;;;;;5073321;28;20040;-61
2021/01/25 10:35:06;;;;;;;9.48;5.30;;;16.50;57.90;;;;;;5081884;28;20028;-61
2021/01/25 10:37:32;;;;;;;8.55;5.40;;;16.50;58.30;;;;;;5068735;28;20043;-66
2021/01/25 10:39:57;;;;;;;7.68;4.90;;;16.40;58.20;;;;;;5072474;28;20032;-67
2021/01/25 10:42:23;;;;;;;9.38;5.90;;;16.50;58.40;;;;;;5073198;28;20029;-62
2021/01/25 10:44:49;;;;;;;10.55;5.63;;;16.40;58.50;;;;;;5066594;28;20031;-65
2021/01/25 10:47:18;;;;;;;8.82;5.55;;;16.40;58.40;;;;;;5066855;28;20068;-61
2021/01/25 10:49:45;;;;;;;16.65;5.60;;;16.50;58.60;;;;;;5067243;28;20497;-62
2021/01/25 10:52:11;;;;;;;11.25;5.80;;;16.50;58.40;;;;;;5065667;28;20485;-61
2021/01/25 10:54:36;;;;;;;9.00;5.30;;;16.50;58.60;;;;;;5067837;28;20024;-61
2021/01/25 10:57:02;;;;;;;9.40;5.20;;;16.70;58.00;;;;;;5080425;28;20516;-64
2021/01/25 10:59:30;;;;;;;8.45;4.78;;;16.70;58.10;;;;;;5084871;28;20027;-62
2021/01/25 11:01:55;;;;;;;10.82;5.22;;;16.80;58.20;;;;;;5082746;28;20039;-61
2021/01/25 11:04:21;;;;;;;8.07;5.32;;;16.80;58.10;;;;;;5076408;28;20036;-61
2021/01/25 11:06:48;;;;;;;8.60;5.35;;;16.90;57.70;;;;;;5082662;28;20043;-65
2021/01/25 11:09:14;;;;;;;10.00;5.38;;;16.90;58.10;;;;;;5075373;28;20406;-62
2021/01/25 11:11:40;;;;;;;8.80;5.53;;;16.90;58.10;;;;;;5061750;28;20056;-64
2021/01/25 11:14:05;;;;;;;7.78;4.85;;;16.90;57.70;;;;;;5070428;28;20024;-62
2021/01/25 11:16:32;;;;;;;10.80;5.22;;;16.90;57.50;;;;;;5068300;28;20358;-64
2021/01/25 11:18:58;;;;;;;9.55;4.97;;;17.00;57.30;;;;;;5080302;28;20028;-62
2021/01/25 11:21:23;;;;;;;13.95;5.50;;;17.00;57.20;;;;;;5071716;28;20036;-67
2021/01/25 11:23:50;;;;;;;10.48;5.25;;;17.00;57.10;;;;;;5065565;28;20025;-62
2021/01/25 11:26:17;;;;;;;8.77;5.53;;;17.10;57.00;;;;;;5065879;28;20017;-64
2021/01/25 11:28:42;;;;;;;9.10;5.40;;;17.10;56.80;;;;;;5073998;28;20056;-63
2021/01/25 11:31:08;;;;;;;9.30;4.88;;;17.20;56.80;;;;;;5065134;28;20465;-64
2021/01/25 11:33:34;;;;;;;8.55;4.80;;;17.20;57.20;;;;;;5068735;28;20028;-67
2021/01/25 11:36:00;;;;;;;8.80;5.53;;;17.20;56.60;;;;;;5063328;28;20036;-63
2021/01/25 11:38:26;;;;;;;8.52;5.20;;;17.20;56.40;;;;;;5061055;28;20051;-62
2021/01/25 11:40:52;;;;;;;9.02;5.60;;;17.30;56.80;;;;;;5061958;28;20028;-67
2021/01/25 11:43:17;;;;;;;9.23;5.50;;;17.30;57.00;;;;;;5063932;28;20041;-69
2021/01/25 11:45:43;;;;;;;10.88;5.60;;;17.30;56.90;;;;;;5064699;28;20032;-62
2021/01/25 11:48:09;;;;;;;11.85;6.18;;;17.30;56.80;;;;;;5080920;28;20094;-63
2021/01/25 11:50:36;;;;;;;8.93;6.10;;;17.40;56.60;;;;;;5073818;28;20051;-64
2021/01/25 11:53:02;;;;;;;11.48;5.93;;;17.40;56.40;;;;;;5083005;28;20036;-62
2021/01/25 11:55:27;;;;;;;9.68;6.18;;;17.50;56.40;;;;;;5079037;28;20085;-64
2021/01/25 11:57:53;;;;;;;15.30;6.88;;;17.50;56.10;;;;;;5067818;28;20028;-65
2021/01/25 12:00:19;;;;;;;10.38;5.82;;;17.50;55.80;;;;;;5080059;28;20111;-64
2021/01/25 12:02:44;;;;;;;9.10;5.55;;;17.50;55.80;;;;;;5080740;28;20513;-63
2021/01/25 12:05:11;;;;;;;10.10;5.93;;;17.50;55.80;;;;;;5101384;28;20040;-61
2021/01/25 12:07:37;;;;;;;7.90;5.60;;;17.50;55.80;;;;;;5091545;28;20110;-65
2021/01/25 12:10:06;;;;;;;10.00;5.65;;;17.60;55.80;;;;;;5087396;28;21462;-64
2021/01/25 12:12:31;;;;;;;8.50;5.55;;;17.60;55.80;;;;;;5075101;28;20639;-66
2021/01/25 12:14:57;;;;;;;9.27;6.13;;;17.60;55.50;;;;;;5092175;28;20075;-63
2021/01/25 12:17:23;;;;;;;8.70;5.13;;;17.60;55.10;;;;;;5085165;28;20032;-62
2021/01/25 12:19:48;;;;;;;8.13;5.13;;;17.60;55.40;;;;;;5066885;28;20406;-65
2021/01/25 12:22:15;;;;;;;15.57;5.70;;;17.60;55.50;;;;;;5076894;28;20131;-66
2021/01/25 12:24:41;;;;;;;12.23;5.60;;;17.80;55.10;;;;;;5075388;28;20028;-62
2021/01/25 12:27:07;;;;;;;11.55;5.65;;;17.70;55.30;;;;;;5070803;28;20070;-61
2021/01/25 12:29:33;;;;;;;10.75;5.72;;;17.70;55.30;;;;;;5075295;28;20020;-63
2021/01/25 12:31:58;;;;;;;10.93;5.20;;;17.80;55.80;;;;;;5065442;28;20028;-62
2021/01/25 12:34:26;;;;;;;11.65;5.20;;;17.80;55.20;;;;;;5069285;28;20020;-65
2021/01/25 12:36:52;;;;;;;11.82;5.03;;;17.80;55.00;;;;;;5079314;28;20055;-62
2021/01/25 12:39:18;;;;;;;10.98;5.15;;;17.80;54.90;;;;;;5083484;28;20033;-62
2021/01/25 12:41:44;;;;;;;13.25;6.15;;;17.90;54.70;;;;;;5070043;28;20082;-62
2021/01/25 12:44:09;;;;;;;18.60;6.30;;;18.00;54.40;;;;;;5083339;28;20143;-62
2021/01/25 12:46:35;;;;;;;18.08;5.55;;;18.10;54.60;;;;;;5102409;28;20426;-63